sensor_id;sensor_type;location;lat;lon;timestamp;temperature;humidity
77592;DHT22;66891;46.884;17.436;2023-06-22T00:01:22;23.30;84.24
77592;DHT22;66891;46.884;17.436;2023-06-22T00:03:50;23.31;83.32
77592;DHT22;66891;46.884;17.436;2023-06-22T00:06:18;23.35;83.38
77592;DHT22;66891;46.884;17.436;2023-06-22T00:08:45;23.34;83.21
77592;DHT22;66891;46.884;17.436;2023-06-22T00:11:12;23.24;82.92
77592;DHT22;66891;46.884;17.436;2023-06-22T00:13:41;23.18;82.45
77592;DHT22;66891;46.884;17.436;2023-06-22T00:16:08;23.21;81.79
77592;DHT22;66891;46.884;17.436;2023-06-22T00:18:36;23.22;80.96
77592;DHT22;66891;46.884;17.436;2023-06-22T00:21:03;23.28;80.32
77592;DHT22;66891;46.884;17.436;2023-06-22T00:23:31;23.35;79.77
77592;DHT22;66891;46.884;17.436;2023-06-22T00:26:02;23.31;79.22
77592;DHT22;66891;46.884;17.436;2023-06-22T00:28:29;23.25;80.26
77592;DHT22;66891;46.884;17.436;2023-06-22T00:30:59;23.32;79.04
77592;DHT22;66891;46.884;17.436;2023-06-22T00:33:27;23.28;79.81
77592;DHT22;66891;46.884;17.436;2023-06-22T00:35:55;23.25;79.28
77592;DHT22;66891;46.884;17.436;2023-06-22T00:38:23;23.31;78.78
77592;DHT22;66891;46.884;17.436;2023-06-22T00:40:50;23.38;78.46
77592;DHT22;66891;46.884;17.436;2023-06-22T00:43:18;23.21;79.48
77592;DHT22;66891;46.884;17.436;2023-06-22T00:45:45;23.17;79.62
77592;DHT22;66891;46.884;17.436;2023-06-22T00:48:14;23.17;80.54
77592;DHT22;66891;46.884;17.436;2023-06-22T00:50:42;23.21;82.09
77592;DHT22;66891;46.884;17.436;2023-06-22T00:53:10;23.14;82.79
77592;DHT22;66891;46.884;17.436;2023-06-22T00:55:41;23.07;83.24
77592;DHT22;66891;46.884;17.436;2023-06-22T00:58:11;23.08;83.57
77592;DHT22;66891;46.884;17.436;2023-06-22T01:00:39;23.03;84.40
77592;DHT22;66891;46.884;17.436;2023-06-22T01:03:07;22.99;84.21
77592;DHT22;66891;46.884;17.436;2023-06-22T01:05:40;22.91;84.85
77592;DHT22;66891;46.884;17.436;2023-06-22T01:08:22;22.86;84.94
77592;DHT22;66891;46.884;17.436;2023-06-22T01:10:53;23.00;84.72
77592;DHT22;66891;46.884;17.436;2023-06-22T01:13:28;22.90;84.58
77592;DHT22;66891;46.884;17.436;2023-06-22T01:16:01;22.83;85.04
77592;DHT22;66891;46.884;17.436;2023-06-22T01:18:30;23.01;84.31
77592;DHT22;66891;46.884;17.436;2023-06-22T01:21:00;22.97;84.16
77592;DHT22;66891;46.884;17.436;2023-06-22T01:23:50;22.72;82.92
77592;DHT22;66891;46.884;17.436;2023-06-22T01:26:20;22.74;81.22
77592;DHT22;66891;46.884;17.436;2023-06-22T01:28:53;22.67;81.38
77592;DHT22;66891;46.884;17.436;2023-06-22T01:31:24;22.60;80.80
77592;DHT22;66891;46.884;17.436;2023-06-22T01:33:54;22.60;81.08
77592;DHT22;66891;46.884;17.436;2023-06-22T01:36:23;22.49;81.55
77592;DHT22;66891;46.884;17.436;2023-06-22T01:38:52;22.31;83.99
77592;DHT22;66891;46.884;17.436;2023-06-22T01:41:20;22.28;84.66
77592;DHT22;66891;46.884;17.436;2023-06-22T01:43:48;22.21;85.96
77592;DHT22;66891;46.884;17.436;2023-06-22T01:46:18;22.08;86.77
77592;DHT22;66891;46.884;17.436;2023-06-22T01:48:46;22.02;87.62
77592;DHT22;66891;46.884;17.436;2023-06-22T01:51:14;22.07;87.87
77592;DHT22;66891;46.884;17.436;2023-06-22T01:53:42;21.96;88.25
77592;DHT22;66891;46.884;17.436;2023-06-22T01:56:09;21.88;88.46
77592;DHT22;66891;46.884;17.436;2023-06-22T01:58:43;21.78;88.87
77592;DHT22;66891;46.884;17.436;2023-06-22T02:01:17;21.67;89.34
77592;DHT22;66891;46.884;17.436;2023-06-22T02:03:50;21.63;89.24
77592;DHT22;66891;46.884;17.436;2023-06-22T02:06:24;21.57;89.09
77592;DHT22;66891;46.884;17.436;2023-06-22T02:08:57;21.49;89.21
77592;DHT22;66891;46.884;17.436;2023-06-22T02:11:26;21.45;88.81
77592;DHT22;66891;46.884;17.436;2023-06-22T02:13:56;21.31;88.55
77592;DHT22;66891;46.884;17.436;2023-06-22T02:16:26;21.23;88.09
77592;DHT22;66891;46.884;17.436;2023-06-22T02:19:01;21.15;88.15
77592;DHT22;66891;46.884;17.436;2023-06-22T02:21:30;21.15;87.78
77592;DHT22;66891;46.884;17.436;2023-06-22T02:23:58;21.06;87.79
77592;DHT22;66891;46.884;17.436;2023-06-22T02:26:26;21.09;87.82
77592;DHT22;66891;46.884;17.436;2023-06-22T02:28:53;21.01;87.85
77592;DHT22;66891;46.884;17.436;2023-06-22T02:31:20;20.96;88.02
77592;DHT22;66891;46.884;17.436;2023-06-22T02:33:49;20.94;88.14
77592;DHT22;66891;46.884;17.436;2023-06-22T02:36:17;20.96;87.88
77592;DHT22;66891;46.884;17.436;2023-06-22T02:38:49;20.96;87.72
77592;DHT22;66891;46.884;17.436;2023-06-22T02:41:17;20.95;87.60
77592;DHT22;66891;46.884;17.436;2023-06-22T02:43:48;20.90;87.91
77592;DHT22;66891;46.884;17.436;2023-06-22T02:46:16;20.85;87.85
77592;DHT22;66891;46.884;17.436;2023-06-22T02:48:43;20.83;87.83
77592;DHT22;66891;46.884;17.436;2023-06-22T02:51:14;20.80;87.46
77592;DHT22;66891;46.884;17.436;2023-06-22T02:53:42;20.75;87.52
77592;DHT22;66891;46.884;17.436;2023-06-22T02:56:12;20.64;87.99
77592;DHT22;66891;46.884;17.436;2023-06-22T02:58:39;20.70;87.58
77592;DHT22;66891;46.884;17.436;2023-06-22T03:01:07;20.73;87.35
77592;DHT22;66891;46.884;17.436;2023-06-22T03:03:34;20.75;87.05
77592;DHT22;66891;46.884;17.436;2023-06-22T03:06:02;20.74;87.22
77592;DHT22;66891;46.884;17.436;2023-06-22T03:08:31;20.57;87.38
77592;DHT22;66891;46.884;17.436;2023-06-22T03:10:58;20.60;87.32
77592;DHT22;66891;46.884;17.436;2023-06-22T03:13:26;20.56;87.56
77592;DHT22;66891;46.884;17.436;2023-06-22T03:15:54;20.60;87.30
77592;DHT22;66891;46.884;17.436;2023-06-22T03:18:21;20.56;87.17
77592;DHT22;66891;46.884;17.436;2023-06-22T03:20:49;20.46;87.63
77592;DHT22;66891;46.884;17.436;2023-06-22T03:23:16;20.53;86.92
77592;DHT22;66891;46.884;17.436;2023-06-22T03:25:46;20.53;86.96
77592;DHT22;66891;46.884;17.436;2023-06-22T03:28:13;20.50;87.38
77592;DHT22;66891;46.884;17.436;2023-06-22T03:30:41;20.51;87.50
77592;DHT22;66891;46.884;17.436;2023-06-22T03:33:08;20.51;87.46
77592;DHT22;66891;46.884;17.436;2023-06-22T03:35:35;20.61;87.23
77592;DHT22;66891;46.884;17.436;2023-06-22T03:38:03;20.58;87.89
77592;DHT22;66891;46.884;17.436;2023-06-22T03:40:30;20.56;88.23
77592;DHT22;66891;46.884;17.436;2023-06-22T03:42:59;20.53;88.37
77592;DHT22;66891;46.884;17.436;2023-06-22T03:45:26;20.58;87.88
77592;DHT22;66891;46.884;17.436;2023-06-22T03:47:54;20.68;88.02
77592;DHT22;66891;46.884;17.436;2023-06-22T03:50:21;20.56;88.67
77592;DHT22;66891;46.884;17.436;2023-06-22T03:52:49;20.68;87.80
77592;DHT22;66891;46.884;17.436;2023-06-22T03:55:19;20.50;88.85
77592;DHT22;66891;46.884;17.436;2023-06-22T03:57:46;20.58;88.88
77592;DHT22;66891;46.884;17.436;2023-06-22T04:00:15;20.54;88.99
77592;DHT22;66891;46.884;17.436;2023-06-22T04:02:43;20.53;88.32
77592;DHT22;66891;46.884;17.436;2023-06-22T04:05:10;20.57;88.37
77592;DHT22;66891;46.884;17.436;2023-06-22T04:07:38;20.73;87.42
77592;DHT22;66891;46.884;17.436;2023-06-22T04:10:07;20.87;86.87
77592;DHT22;66891;46.884;17.436;2023-06-22T04:12:37;21.01;86.13
77592;DHT22;66891;46.884;17.436;2023-06-22T04:15:06;21.05;85.94
77592;DHT22;66891;46.884;17.436;2023-06-22T04:17:34;21.05;86.09
77592;DHT22;66891;46.884;17.436;2023-06-22T04:20:02;21.06;85.72
77592;DHT22;66891;46.884;17.436;2023-06-22T04:22:31;20.95;86.87
77592;DHT22;66891;46.884;17.436;2023-06-22T04:24:58;20.88;87.25
77592;DHT22;66891;46.884;17.436;2023-06-22T04:27:25;21.13;85.43
77592;DHT22;66891;46.884;17.436;2023-06-22T04:29:53;21.09;85.97
77592;DHT22;66891;46.884;17.436;2023-06-22T04:32:20;21.19;85.83
77592;DHT22;66891;46.884;17.436;2023-06-22T04:34:49;21.35;85.70
77592;DHT22;66891;46.884;17.436;2023-06-22T04:37:16;21.45;85.49
77592;DHT22;66891;46.884;17.436;2023-06-22T04:39:43;21.47;85.95
77592;DHT22;66891;46.884;17.436;2023-06-22T04:42:12;21.45;86.41
77592;DHT22;66891;46.884;17.436;2023-06-22T04:44:39;21.54;86.40
77592;DHT22;66891;46.884;17.436;2023-06-22T04:47:07;21.66;86.14
77592;DHT22;66891;46.884;17.436;2023-06-22T04:49:36;21.66;86.96
77592;DHT22;66891;46.884;17.436;2023-06-22T04:52:10;21.87;86.46
77592;DHT22;66891;46.884;17.436;2023-06-22T04:54:38;21.96;86.16
77592;DHT22;66891;46.884;17.436;2023-06-22T04:57:07;22.02;85.70
77592;DHT22;66891;46.884;17.436;2023-06-22T04:59:38;22.08;86.10
77592;DHT22;66891;46.884;17.436;2023-06-22T05:02:09;22.11;86.11
77592;DHT22;66891;46.884;17.436;2023-06-22T05:04:37;22.31;84.97
77592;DHT22;66891;46.884;17.436;2023-06-22T05:07:09;22.38;84.65
77592;DHT22;66891;46.884;17.436;2023-06-22T05:09:37;22.38;85.27
77592;DHT22;66891;46.884;17.436;2023-06-22T05:12:05;22.41;85.54
77592;DHT22;66891;46.884;17.436;2023-06-22T05:14:36;22.46;85.45
77592;DHT22;66891;46.884;17.436;2023-06-22T05:17:04;22.45;85.24
77592;DHT22;66891;46.884;17.436;2023-06-22T05:19:31;22.53;84.36
77592;DHT22;66891;46.884;17.436;2023-06-22T05:22:01;22.62;85.00
77592;DHT22;66891;46.884;17.436;2023-06-22T05:24:30;22.59;85.12
77592;DHT22;66891;46.884;17.436;2023-06-22T05:26:57;22.66;85.17
77592;DHT22;66891;46.884;17.436;2023-06-22T05:29:25;22.83;83.66
77592;DHT22;66891;46.884;17.436;2023-06-22T05:31:53;22.99;83.41
77592;DHT22;66891;46.884;17.436;2023-06-22T05:34:21;23.04;82.80
77592;DHT22;66891;46.884;17.436;2023-06-22T05:36:48;23.10;83.43
77592;DHT22;66891;46.884;17.436;2023-06-22T05:39:15;23.11;83.00
77592;DHT22;66891;46.884;17.436;2023-06-22T05:41:46;23.21;82.72
77592;DHT22;66891;46.884;17.436;2023-06-22T05:44:13;23.20;82.71
77592;DHT22;66891;46.884;17.436;2023-06-22T05:46:42;23.27;82.38
77592;DHT22;66891;46.884;17.436;2023-06-22T05:49:16;23.41;81.85
77592;DHT22;66891;46.884;17.436;2023-06-22T05:51:44;23.54;81.48
77592;DHT22;66891;46.884;17.436;2023-06-22T05:54:11;23.51;82.15
77592;DHT22;66891;46.884;17.436;2023-06-22T05:56:40;23.76;80.62
77592;DHT22;66891;46.884;17.436;2023-06-22T05:59:09;23.87;80.60
77592;DHT22;66891;46.884;17.436;2023-06-22T06:01:36;23.87;80.47
77592;DHT22;66891;46.884;17.436;2023-06-22T06:04:04;23.99;79.42
77592;DHT22;66891;46.884;17.436;2023-06-22T06:06:31;24.10;80.05
77592;DHT22;66891;46.884;17.436;2023-06-22T06:08:59;24.23;78.46
77592;DHT22;66891;46.884;17.436;2023-06-22T06:11:26;24.43;77.93
77592;DHT22;66891;46.884;17.436;2023-06-22T06:13:54;24.44;78.76
77592;DHT22;66891;46.884;17.436;2023-06-22T06:16:23;24.52;78.13
77592;DHT22;66891;46.884;17.436;2023-06-22T06:18:50;24.45;79.46
77592;DHT22;66891;46.884;17.436;2023-06-22T06:21:20;24.64;77.74
77592;DHT22;66891;46.884;17.436;2023-06-22T06:23:47;24.72;77.08
77592;DHT22;66891;46.884;17.436;2023-06-22T06:26:15;24.81;77.24
77592;DHT22;66891;46.884;17.436;2023-06-22T06:28:43;24.79;78.73
77592;DHT22;66891;46.884;17.436;2023-06-22T06:31:11;24.73;78.72
77592;DHT22;66891;46.884;17.436;2023-06-22T06:33:40;24.82;78.57
77592;DHT22;66891;46.884;17.436;2023-06-22T06:36:08;24.98;77.95
77592;DHT22;66891;46.884;17.436;2023-06-22T06:38:35;24.99;78.56
77592;DHT22;66891;46.884;17.436;2023-06-22T06:41:02;24.98;78.66
77592;DHT22;66891;46.884;17.436;2023-06-22T06:43:30;24.92;78.81
77592;DHT22;66891;46.884;17.436;2023-06-22T06:45:57;25.00;78.68
77592;DHT22;66891;46.884;17.436;2023-06-22T06:48:24;25.09;78.69
77592;DHT22;66891;46.884;17.436;2023-06-22T06:50:53;25.06;79.48
77592;DHT22;66891;46.884;17.436;2023-06-22T06:53:20;25.16;78.21
77592;DHT22;66891;46.884;17.436;2023-06-22T06:55:48;25.15;78.95
77592;DHT22;66891;46.884;17.436;2023-06-22T06:58:16;25.22;78.37
77592;DHT22;66891;46.884;17.436;2023-06-22T07:00:43;25.31;77.65
77592;DHT22;66891;46.884;17.436;2023-06-22T07:03:10;25.38;76.55
77592;DHT22;66891;46.884;17.436;2023-06-22T07:05:38;25.46;76.34
77592;DHT22;66891;46.884;17.436;2023-06-22T07:08:07;25.53;77.57
77592;DHT22;66891;46.884;17.436;2023-06-22T07:10:34;25.57;77.75
77592;DHT22;66891;46.884;17.436;2023-06-22T07:13:02;25.57;77.20
77592;DHT22;66891;46.884;17.436;2023-06-22T07:15:29;25.57;77.25
77592;DHT22;66891;46.884;17.436;2023-06-22T07:17:57;25.67;76.95
77592;DHT22;66891;46.884;17.436;2023-06-22T07:20:24;25.77;76.72
77592;DHT22;66891;46.884;17.436;2023-06-22T07:22:51;25.86;77.17
77592;DHT22;66891;46.884;17.436;2023-06-22T07:25:21;25.94;76.38
77592;DHT22;66891;46.884;17.436;2023-06-22T07:27:58;25.94;76.29
77592;DHT22;66891;46.884;17.436;2023-06-22T07:30:25;26.02;76.23
77592;DHT22;66891;46.884;17.436;2023-06-22T07:32:54;26.13;75.43
77592;DHT22;66891;46.884;17.436;2023-06-22T07:35:22;26.13;76.22
77592;DHT22;66891;46.884;17.436;2023-06-22T07:37:49;26.35;75.52
77592;DHT22;66891;46.884;17.436;2023-06-22T07:40:16;26.28;73.45
77592;DHT22;66891;46.884;17.436;2023-06-22T07:42:45;26.26;76.22
77592;DHT22;66891;46.884;17.436;2023-06-22T07:45:15;26.42;76.23
77592;DHT22;66891;46.884;17.436;2023-06-22T07:47:42;26.30;74.54
77592;DHT22;66891;46.884;17.436;2023-06-22T07:50:10;26.50;76.17
77592;DHT22;66891;46.884;17.436;2023-06-22T07:52:38;26.50;74.25
77592;DHT22;66891;46.884;17.436;2023-06-22T07:55:05;26.78;75.27
77592;DHT22;66891;46.884;17.436;2023-06-22T07:57:33;26.61;73.13
77592;DHT22;66891;46.884;17.436;2023-06-22T08:00:04;26.73;73.67
77592;DHT22;66891;46.884;17.436;2023-06-22T08:02:39;26.80;73.18
77592;DHT22;66891;46.884;17.436;2023-06-22T08:05:07;26.80;74.39
77592;DHT22;66891;46.884;17.436;2023-06-22T08:07:47;26.78;73.62
77592;DHT22;66891;46.884;17.436;2023-06-22T08:10:15;26.83;72.40
77592;DHT22;66891;46.884;17.436;2023-06-22T08:12:43;26.95;74.52
77592;DHT22;66891;46.884;17.436;2023-06-22T08:15:11;27.02;72.94
77592;DHT22;66891;46.884;17.436;2023-06-22T08:17:39;27.15;74.82
77592;DHT22;66891;46.884;17.436;2023-06-22T08:20:08;27.05;72.42
77592;DHT22;66891;46.884;17.436;2023-06-22T08:22:39;27.09;74.22
77592;DHT22;66891;46.884;17.436;2023-06-22T08:25:08;27.14;73.22
77592;DHT22;66891;46.884;17.436;2023-06-22T08:27:35;27.28;72.78
77592;DHT22;66891;46.884;17.436;2023-06-22T08:30:04;27.29;72.43
77592;DHT22;66891;46.884;17.436;2023-06-22T08:32:33;27.21;73.14
77592;DHT22;66891;46.884;17.436;2023-06-22T08:35:01;27.24;74.24
77592;DHT22;66891;46.884;17.436;2023-06-22T08:37:28;27.26;72.88
77592;DHT22;66891;46.884;17.436;2023-06-22T08:39:59;27.43;72.47
77592;DHT22;66891;46.884;17.436;2023-06-22T08:42:28;27.39;73.12
77592;DHT22;66891;46.884;17.436;2023-06-22T08:44:55;27.45;73.35
77592;DHT22;66891;46.884;17.436;2023-06-22T08:47:23;27.63;74.86
77592;DHT22;66891;46.884;17.436;2023-06-22T08:49:52;27.55;72.20
77592;DHT22;66891;46.884;17.436;2023-06-22T08:52:19;27.50;70.59
77592;DHT22;66891;46.884;17.436;2023-06-22T08:54:47;27.63;73.40
77592;DHT22;66891;46.884;17.436;2023-06-22T08:57:15;27.73;73.73
77592;DHT22;66891;46.884;17.436;2023-06-22T08:59:43;27.81;73.90
77592;DHT22;66891;46.884;17.436;2023-06-22T09:02:10;27.76;73.20
77592;DHT22;66891;46.884;17.436;2023-06-22T09:04:38;27.70;70.25
77592;DHT22;66891;46.884;17.436;2023-06-22T09:07:07;27.70;69.21
77592;DHT22;66891;46.884;17.436;2023-06-22T09:09:34;28.08;70.42
77592;DHT22;66891;46.884;17.436;2023-06-22T09:12:02;28.00;70.29
77592;DHT22;66891;46.884;17.436;2023-06-22T09:14:29;28.02;68.53
77592;DHT22;66891;46.884;17.436;2023-06-22T09:16:56;28.29;72.58
77592;DHT22;66891;46.884;17.436;2023-06-22T09:19:24;28.27;70.47
77592;DHT22;66891;46.884;17.436;2023-06-22T09:21:51;28.28;70.28
77592;DHT22;66891;46.884;17.436;2023-06-22T09:24:20;28.12;68.61
77592;DHT22;66891;46.884;17.436;2023-06-22T09:26:47;28.29;70.26
77592;DHT22;66891;46.884;17.436;2023-06-22T09:29:14;28.37;69.17
77592;DHT22;66891;46.884;17.436;2023-06-22T09:31:42;28.08;67.79
77592;DHT22;66891;46.884;17.436;2023-06-22T09:34:09;27.76;69.91
77592;DHT22;66891;46.884;17.436;2023-06-22T09:36:36;28.73;73.41
77592;DHT22;66891;46.884;17.436;2023-06-22T09:39:06;29.14;72.05
77592;DHT22;66891;46.884;17.436;2023-06-22T09:41:35;28.97;71.19
77592;DHT22;66891;46.884;17.436;2023-06-22T09:44:02;28.86;70.36
77592;DHT22;66891;46.884;17.436;2023-06-22T09:46:30;29.03;71.27
77592;DHT22;66891;46.884;17.436;2023-06-22T09:48:57;29.27;71.27
77592;DHT22;66891;46.884;17.436;2023-06-22T09:51:24;29.41;72.83
77592;DHT22;66891;46.884;17.436;2023-06-22T09:53:52;28.89;68.05
77592;DHT22;66891;46.884;17.436;2023-06-22T09:56:21;29.66;73.67
77592;DHT22;66891;46.884;17.436;2023-06-22T09:58:49;29.02;69.24
77592;DHT22;66891;46.884;17.436;2023-06-22T10:01:21;29.04;69.35
77592;DHT22;66891;46.884;17.436;2023-06-22T10:03:49;29.15;68.72
77592;DHT22;66891;46.884;17.436;2023-06-22T10:06:17;29.41;70.73
77592;DHT22;66891;46.884;17.436;2023-06-22T10:08:44;29.66;72.41
77592;DHT22;66891;46.884;17.436;2023-06-22T10:11:11;29.44;67.46
77592;DHT22;66891;46.884;17.436;2023-06-22T10:13:39;30.06;69.33
77592;DHT22;66891;46.884;17.436;2023-06-22T10:16:07;30.28;69.20
77592;DHT22;66891;46.884;17.436;2023-06-22T10:18:35;30.24;66.76
77592;DHT22;66891;46.884;17.436;2023-06-22T10:21:02;29.66;68.71
77592;DHT22;66891;46.884;17.436;2023-06-22T10:23:30;30.07;67.70
77592;DHT22;66891;46.884;17.436;2023-06-22T10:25:57;30.51;66.52
77592;DHT22;66891;46.884;17.436;2023-06-22T10:28:25;30.68;66.85
77592;DHT22;66891;46.884;17.436;2023-06-22T10:30:52;30.09;67.57
77592;DHT22;66891;46.884;17.436;2023-06-22T10:33:21;30.53;65.25
77592;DHT22;66891;46.884;17.436;2023-06-22T10:35:48;30.61;65.17
77592;DHT22;66891;46.884;17.436;2023-06-22T10:38:16;30.60;64.58
77592;DHT22;66891;46.884;17.436;2023-06-22T10:40:43;30.68;64.55
77592;DHT22;66891;46.884;17.436;2023-06-22T10:43:10;30.34;65.16
77592;DHT22;66891;46.884;17.436;2023-06-22T10:45:39;30.67;63.90
77592;DHT22;66891;46.884;17.436;2023-06-22T10:48:06;30.91;62.95
77592;DHT22;66891;46.884;17.436;2023-06-22T10:50:35;30.81;63.47
77592;DHT22;66891;46.884;17.436;2023-06-22T10:53:03;30.63;63.62
77592;DHT22;66891;46.884;17.436;2023-06-22T10:55:30;30.72;63.57
77592;DHT22;66891;46.884;17.436;2023-06-22T10:58:18;31.19;62.68
77592;DHT22;66891;46.884;17.436;2023-06-22T11:00:46;31.13;62.00
77592;DHT22;66891;46.884;17.436;2023-06-22T11:03:13;31.25;62.80
77592;DHT22;66891;46.884;17.436;2023-06-22T11:05:43;31.57;61.89
77592;DHT22;66891;46.884;17.436;2023-06-22T11:08:10;31.82;61.95
77592;DHT22;66891;46.884;17.436;2023-06-22T11:10:38;31.92;60.82
77592;DHT22;66891;46.884;17.436;2023-06-22T11:13:05;32.15;60.03
77592;DHT22;66891;46.884;17.436;2023-06-22T11:15:38;32.26;60.30
77592;DHT22;66891;46.884;17.436;2023-06-22T11:18:06;32.36;59.26
77592;DHT22;66891;46.884;17.436;2023-06-22T11:20:34;32.35;58.43
77592;DHT22;66891;46.884;17.436;2023-06-22T11:23:07;32.52;58.75
77592;DHT22;66891;46.884;17.436;2023-06-22T11:25:34;32.64;59.59
77592;DHT22;66891;46.884;17.436;2023-06-22T11:28:02;33.28;56.75
77592;DHT22;66891;46.884;17.436;2023-06-22T11:30:30;33.31;56.95
77592;DHT22;66891;46.884;17.436;2023-06-22T11:32:59;33.38;57.53
77592;DHT22;66891;46.884;17.436;2023-06-22T11:35:27;33.97;56.34
77592;DHT22;66891;46.884;17.436;2023-06-22T11:37:55;33.61;56.69
77592;DHT22;66891;46.884;17.436;2023-06-22T11:40:25;33.44;57.14
77592;DHT22;66891;46.884;17.436;2023-06-22T11:42:52;33.75;59.00
77592;DHT22;66891;46.884;17.436;2023-06-22T11:45:20;36.09;52.00
77592;DHT22;66891;46.884;17.436;2023-06-22T11:47:47;36.77;50.19
77592;DHT22;66891;46.884;17.436;2023-06-22T11:50:14;36.93;51.37
77592;DHT22;66891;46.884;17.436;2023-06-22T11:52:42;37.64;49.74
77592;DHT22;66891;46.884;17.436;2023-06-22T11:55:09;38.10;46.27
77592;DHT22;66891;46.884;17.436;2023-06-22T11:57:51;37.97;46.63
77592;DHT22;66891;46.884;17.436;2023-06-22T12:00:19;37.62;47.81
77592;DHT22;66891;46.884;17.436;2023-06-22T12:02:47;37.85;48.85
77592;DHT22;66891;46.884;17.436;2023-06-22T12:05:15;39.03;46.67
77592;DHT22;66891;46.884;17.436;2023-06-22T12:07:42;38.81;46.73
77592;DHT22;66891;46.884;17.436;2023-06-22T12:10:10;38.04;47.59
77592;DHT22;66891;46.884;17.436;2023-06-22T12:12:38;38.88;45.55
77592;DHT22;66891;46.884;17.436;2023-06-22T12:15:06;38.54;47.73
77592;DHT22;66891;46.884;17.436;2023-06-22T12:17:34;38.64;47.55
77592;DHT22;66891;46.884;17.436;2023-06-22T12:20:02;38.76;46.76
77592;DHT22;66891;46.884;17.436;2023-06-22T12:22:32;39.06;44.08
77592;DHT22;66891;46.884;17.436;2023-06-22T12:24:59;39.23;45.21
77592;DHT22;66891;46.884;17.436;2023-06-22T12:27:27;39.22;43.58
77592;DHT22;66891;46.884;17.436;2023-06-22T12:29:56;38.23;45.78
77592;DHT22;66891;46.884;17.436;2023-06-22T12:32:24;39.22;44.55
77592;DHT22;66891;46.884;17.436;2023-06-22T12:34:52;39.30;44.98
77592;DHT22;66891;46.884;17.436;2023-06-22T12:37:20;38.54;45.26
77592;DHT22;66891;46.884;17.436;2023-06-22T12:39:47;38.74;44.79
77592;DHT22;66891;46.884;17.436;2023-06-22T12:42:15;39.80;41.52
77592;DHT22;66891;46.884;17.436;2023-06-22T12:44:43;40.46;41.70
77592;DHT22;66891;46.884;17.436;2023-06-22T12:47:11;40.29;40.21
77592;DHT22;66891;46.884;17.436;2023-06-22T12:49:40;40.33;40.91
77592;DHT22;66891;46.884;17.436;2023-06-22T12:52:09;40.18;40.14
77592;DHT22;66891;46.884;17.436;2023-06-22T12:54:39;40.13;39.89
77592;DHT22;66891;46.884;17.436;2023-06-22T12:57:20;39.64;42.44
77592;DHT22;66891;46.884;17.436;2023-06-22T12:59:48;39.95;41.65
77592;DHT22;66891;46.884;17.436;2023-06-22T13:02:17;39.53;43.06
77592;DHT22;66891;46.884;17.436;2023-06-22T13:04:46;38.81;44.36
77592;DHT22;66891;46.884;17.436;2023-06-22T13:07:13;38.21;46.71
77592;DHT22;66891;46.884;17.436;2023-06-22T13:09:49;38.27;45.13
77592;DHT22;66891;46.884;17.436;2023-06-22T13:12:20;37.11;47.40
77592;DHT22;66891;46.884;17.436;2023-06-22T13:14:48;36.64;50.40
77592;DHT22;66891;46.884;17.436;2023-06-22T13:17:16;36.12;51.80
77592;DHT22;66891;46.884;17.436;2023-06-22T13:19:44;36.31;52.17
77592;DHT22;66891;46.884;17.436;2023-06-22T13:22:26;35.95;51.80
77592;DHT22;66891;46.884;17.436;2023-06-22T13:24:55;35.26;53.82
77592;DHT22;66891;46.884;17.436;2023-06-22T13:27:22;35.10;54.31
77592;DHT22;66891;46.884;17.436;2023-06-22T13:29:50;35.36;53.44
77592;DHT22;66891;46.884;17.436;2023-06-22T13:32:19;35.02;54.64
77592;DHT22;66891;46.884;17.436;2023-06-22T13:34:46;34.89;53.27
77592;DHT22;66891;46.884;17.436;2023-06-22T13:37:14;34.81;53.77
77592;DHT22;66891;46.884;17.436;2023-06-22T13:39:41;34.59;53.90
77592;DHT22;66891;46.884;17.436;2023-06-22T13:42:09;34.82;54.54
77592;DHT22;66891;46.884;17.436;2023-06-22T13:44:36;34.77;55.14
77592;DHT22;66891;46.884;17.436;2023-06-22T13:47:06;34.74;54.17
77592;DHT22;66891;46.884;17.436;2023-06-22T13:49:37;34.58;54.94
77592;DHT22;66891;46.884;17.436;2023-06-22T13:52:05;34.25;56.62
77592;DHT22;66891;46.884;17.436;2023-06-22T13:54:37;34.34;56.00
77592;DHT22;66891;46.884;17.436;2023-06-22T13:57:05;34.31;56.39
77592;DHT22;66891;46.884;17.436;2023-06-22T13:59:32;34.31;55.98
77592;DHT22;66891;46.884;17.436;2023-06-22T14:02:00;34.21;55.11
77592;DHT22;66891;46.884;17.436;2023-06-22T14:04:27;34.21;56.72
77592;DHT22;66891;46.884;17.436;2023-06-22T14:06:57;34.06;56.84
77592;DHT22;66891;46.884;17.436;2023-06-22T14:09:25;33.68;55.88
77592;DHT22;66891;46.884;17.436;2023-06-22T14:11:54;33.70;56.93
77592;DHT22;66891;46.884;17.436;2023-06-22T14:14:21;34.04;56.70
77592;DHT22;66891;46.884;17.436;2023-06-22T14:16:49;33.88;57.61
77592;DHT22;66891;46.884;17.436;2023-06-22T14:19:17;33.82;55.65
77592;DHT22;66891;46.884;17.436;2023-06-22T14:21:45;33.75;56.29
77592;DHT22;66891;46.884;17.436;2023-06-22T14:24:14;33.73;57.83
77592;DHT22;66891;46.884;17.436;2023-06-22T14:26:41;33.73;56.61
77592;DHT22;66891;46.884;17.436;2023-06-22T14:29:09;33.86;56.90
77592;DHT22;66891;46.884;17.436;2023-06-22T14:31:36;33.68;56.79
77592;DHT22;66891;46.884;17.436;2023-06-22T14:34:03;33.55;60.09
77592;DHT22;66891;46.884;17.436;2023-06-22T14:36:32;33.45;59.82
77592;DHT22;66891;46.884;17.436;2023-06-22T14:38:59;33.63;59.39
77592;DHT22;66891;46.884;17.436;2023-06-22T14:41:29;33.59;58.43
77592;DHT22;66891;46.884;17.436;2023-06-22T14:43:58;33.51;57.24
77592;DHT22;66891;46.884;17.436;2023-06-22T14:46:25;33.63;57.48
77592;DHT22;66891;46.884;17.436;2023-06-22T14:48:52;33.51;58.90
77592;DHT22;66891;46.884;17.436;2023-06-22T14:51:20;33.22;58.46
77592;DHT22;66891;46.884;17.436;2023-06-22T14:53:47;33.29;58.43
77592;DHT22;66891;46.884;17.436;2023-06-22T14:56:14;33.41;58.88
77592;DHT22;66891;46.884;17.436;2023-06-22T14:58:44;33.06;59.03
77592;DHT22;66891;46.884;17.436;2023-06-22T15:01:16;33.12;59.19
77592;DHT22;66891;46.884;17.436;2023-06-22T15:03:44;32.96;59.72
77592;DHT22;66891;46.884;17.436;2023-06-22T15:06:11;33.29;58.97
77592;DHT22;66891;46.884;17.436;2023-06-22T15:08:39;33.19;60.43
77592;DHT22;66891;46.884;17.436;2023-06-22T15:11:07;33.12;60.20
77592;DHT22;66891;46.884;17.436;2023-06-22T15:13:34;33.14;61.91
77592;DHT22;66891;46.884;17.436;2023-06-22T15:16:03;33.24;59.69
77592;DHT22;66891;46.884;17.436;2023-06-22T15:18:31;33.17;59.55
77592;DHT22;66891;46.884;17.436;2023-06-22T15:21:00;33.11;59.93
77592;DHT22;66891;46.884;17.436;2023-06-22T15:23:28;32.99;60.20